Pagrindinis puslapis
METAR-TAF:

METAR-TAF

Oro uostai :

Al-`Ula, Saudo Arabija

platuma: 26-29-00N, ilguma: 038-07-01E, Aukštis: 624 m

Dabartinis oras

Ataskaita buvo paskelbta 30 minutes, ne 16:00 UTC
Vėjas 10 kt iš Šiaurės/Šiaurės Rytų
Temperatūra 24°C
Drėgmė 22%
Slėgis 1014 hPa
Matomumas 10 km arba daugiau
nėra debesų žemiau 1500 m ir nėra kamuolinių lietaus debesų

METAR: OEAO 291600Z 02010KT CAVOK 24/01 Q1014

Laikas: 19:30 (16:30 UTC)

Prognozė

Ataskaita buvo paskelbta 5 valandos ir 30 minutes, ne 11:00 UTC
Prognozė galioja nuo 29 metu 12 UTC su 30 metu 18 UTC
Vėjas 8 kt iš Vakarų su gūsio iki 18 kt
Matomumas: 6000 m
Išsisklaidę debesys ne aukštis 4000 ft
Išsisklaidę debesys ne aukštis 10000 ft
Laikinai
nuo 29 metu 12 UTC su 29 metu 20 UTC
Matomumas: 3000 m
dulkės, Dulkes pustymas
Tapsmas
nuo 29 metu 20 UTC su 29 metu 22 UTC
Vėjas 3 kt nuo kintamojo kryptimis

TAF: OEAO 291100Z 2912/3018 26008G18KT 6000 SCT040 SCT100 TEMPO 2912/2920 3000 DU BLDU BECMG 2920/2922 VRB03KT

Orai ataskaitas ir orų prognozės (METAR, TAF).

turimą stotys yra geltonos ir raudonos taškus žemėlapyje.

Perkelti pele per norėdami pamatyti stoties vardą.

Tada spustelėkite, norėdami matyti oro stebėjimo ir prognozės.

Norėdami pakeisti žemėlapį: spustelėkite ant žalios mygtukų su juodo kryžiaus žemyn,; žalią mygtuką su brūkšneliu, jei norite nutolinti; arba žalių rodyklių gretimoms žemėlapius.


METAR-TAF: